Terminal Aerodrome Forecast
Issued by NWS

Home | Current Version | Previous Version | Text Only | Print | Product List | Glossary On
Versions: 1 2 3 4 5 6 7 8 9 10 11 12 13 14 15 16 17 18 19 20 21 22
000
FTUS41 KBGM 010500 RRA
TAFITH
TAF
KITH 010541Z 0106/0206 VRB04KT P6SM -SHSN OVC025
     FM010800 29005KT P6SM -SHSN OVC015
     FM011600 34005KT 5SM -SN BKN025 OVC040
     FM012100 36006KT 1 1/2SM -SN OVC015
     FM020200 07005KT 1SM -SN OVC015=

USA.gov is the U.S. government's official web portal to all federal, state and local government web resources and services.